createdAt,value
2018-07-03T00:00:01.605Z,3.4
2018-07-03T00:05:01.434Z,3.2
2018-07-03T00:10:01.441Z,3.4
2018-07-03T00:15:01.443Z,3.6
2018-07-03T00:20:01.504Z,3.8
2018-07-03T00:25:01.440Z,3.6
2018-07-03T00:30:02.187Z,3.6
2018-07-03T00:35:01.445Z,3.6
2018-07-03T00:40:01.384Z,3.6
2018-07-03T00:46:01.467Z,3.5
2018-07-03T00:51:01.529Z,3.6
2018-07-03T00:56:01.415Z,3.7
2018-07-03T01:01:01.448Z,3.8
2018-07-03T01:06:01.378Z,3.8
2018-07-03T01:11:01.387Z,3.9
2018-07-03T01:16:01.434Z,4.0
2018-07-03T01:21:01.384Z,4.4
2018-07-03T01:26:01.376Z,4.5
2018-07-03T01:31:01.374Z,4.6
2018-07-03T01:36:01.615Z,4.8
2018-07-03T01:46:01.384Z,5.3
2018-07-03T01:56:01.407Z,5.2
2018-07-03T02:06:01.444Z,4.8
2018-07-03T02:11:01.390Z,4.4
2018-07-03T02:16:01.413Z,4.2
2018-07-03T02:21:01.413Z,4.6
2018-07-03T02:26:01.387Z,4.7
2018-07-03T02:31:01.440Z,5.2
2018-07-03T02:36:01.431Z,5.7
2018-07-03T02:41:01.599Z,6.3
2018-07-03T02:46:01.414Z,6.4
2018-07-03T02:51:01.441Z,6.3
2018-07-03T02:56:01.488Z,6.5
2018-07-03T03:06:01.455Z,6.1
2018-07-03T03:11:01.376Z,5.9
2018-07-03T03:21:01.401Z,5.6
2018-07-03T03:26:01.394Z,5.7
2018-07-03T03:31:01.440Z,5.5
2018-07-03T03:36:01.474Z,5.8
2018-07-03T03:41:01.487Z,5.6
2018-07-03T03:46:01.377Z,6.0
2018-07-03T03:51:01.436Z,6.2
2018-07-03T04:06:01.470Z,7.1
2018-07-03T04:11:01.443Z,7.4
2018-07-03T04:16:01.449Z,7.3
2018-07-03T04:31:01.574Z,7.4
2018-07-03T04:41:01.542Z,8.0
2018-07-03T04:46:01.379Z,8.5
2018-07-03T04:51:01.448Z,8.9
2018-07-03T04:56:01.447Z,9.0
2018-07-03T05:01:01.449Z,9.4
2018-07-03T05:06:01.369Z,9.8
2018-07-03T05:16:01.371Z,10.5
2018-07-03T05:21:01.447Z,11.4
2018-07-03T05:26:01.382Z,11.8
2018-07-03T05:31:01.513Z,12.4
2018-07-03T05:36:01.483Z,13.2
2018-07-03T05:41:01.638Z,14.1
2018-07-03T05:47:01.368Z,14.5
2018-07-03T05:52:01.615Z,15.2
2018-07-03T05:57:01.446Z,15.2
2018-07-03T06:02:01.510Z,14.9
2018-07-03T06:07:01.377Z,14.1
2018-07-03T06:12:01.509Z,13.8
2018-07-03T06:17:01.450Z,13.6
2018-07-03T06:22:01.520Z,13.6
2018-07-03T06:28:01.376Z,13.7
2018-07-03T06:33:01.473Z,14.4
2018-07-03T06:38:01.381Z,15.0
2018-07-03T06:43:01.509Z,15.8
2018-07-03T06:48:01.383Z,15.5
2018-07-03T06:58:01.448Z,14.6
2018-07-03T07:03:01.511Z,13.8
2018-07-03T07:08:01.357Z,12.3
2018-07-03T07:13:01.503Z,11.8
2018-07-03T07:18:01.346Z,11.5
2018-07-03T07:23:01.550Z,10.8
2018-07-03T07:28:01.375Z,10.6
2018-07-03T07:33:01.532Z,10.6
2018-07-03T07:38:01.387Z,10.6
2018-07-03T07:48:01.655Z,10.9
2018-07-03T07:53:01.454Z,10.8
2018-07-03T07:58:01.354Z,10.8
2018-07-03T08:03:01.444Z,10.7
2018-07-03T08:08:01.409Z,10.6
2018-07-03T08:13:01.574Z,10.2
2018-07-03T08:30:01.432Z,8.0
2018-07-03T08:35:01.388Z,8.6
2018-07-03T08:40:01.481Z,8.7
2018-07-03T08:50:00.657Z,7.0
2018-07-03T09:00:01.050Z,6.0
2018-07-03T09:05:00.928Z,7.3
2018-07-03T09:10:00.932Z,8.0
2018-07-03T09:15:00.934Z,7.9
2018-07-03T09:23:00.618Z,11.2
2018-07-03T09:28:00.608Z,10.1
2018-07-03T09:34:00.653Z,9.2
2018-07-03T09:39:00.735Z,9.6
2018-07-03T09:44:00.623Z,9.6
2018-07-03T10:10:01.488Z,7.0
2018-07-03T10:15:01.353Z,7.0
2018-07-03T10:20:01.627Z,6.7
2018-07-03T10:25:01.360Z,6.5
2018-07-03T10:30:01.490Z,6.5
2018-07-03T10:35:01.452Z,6.7
2018-07-03T10:40:01.494Z,6.5
2018-07-03T10:45:01.331Z,6.5
2018-07-03T11:00:01.447Z,6.0
2018-07-03T11:05:01.516Z,5.6
2018-07-03T11:10:01.953Z,5.4
2018-07-03T11:15:01.445Z,5.4
2018-07-03T11:20:01.651Z,5.6
2018-07-03T11:25:01.436Z,6.0
2018-07-03T11:30:01.497Z,6.6
2018-07-03T11:40:01.667Z,6.9
2018-07-03T11:45:01.386Z,7.0
2018-07-03T11:50:01.467Z,6.5
2018-07-03T12:00:02.458Z,6.9
2018-07-03T12:05:01.467Z,6.4
2018-07-03T12:10:02.020Z,6.0
2018-07-03T12:15:01.450Z,6.3
2018-07-03T12:26:01.440Z,6.0
2018-07-03T12:31:01.436Z,6.4
2018-07-03T12:36:01.575Z,6.5
2018-07-03T12:41:01.505Z,6.3
2018-07-03T12:46:01.387Z,6.2
2018-07-03T12:51:01.699Z,5.8
2018-07-03T12:56:01.624Z,5.6
2018-07-03T13:01:01.571Z,5.8
2018-07-03T13:11:01.569Z,5.8
2018-07-03T13:16:01.383Z,5.6
2018-07-03T13:21:01.440Z,6.0
2018-07-03T13:26:01.447Z,5.6
2018-07-03T13:31:01.496Z,5.8
2018-07-03T13:36:01.471Z,6.2
2018-07-03T13:41:01.376Z,6.6
2018-07-03T13:46:01.502Z,6.6
2018-07-03T13:51:01.381Z,7.1
2018-07-03T13:56:01.378Z,7.5
2018-07-03T14:01:01.399Z,7.6
2018-07-03T14:06:01.504Z,7.5
2018-07-03T14:11:01.563Z,7.4
2018-07-03T14:16:01.445Z,7.3
2018-07-03T14:21:01.501Z,7.4
2018-07-03T14:26:01.348Z,7.3
2018-07-03T14:31:01.626Z,7.4
2018-07-03T14:36:01.386Z,7.6
2018-07-03T14:46:01.564Z,7.0
2018-07-03T14:56:01.535Z,7.2
2018-07-03T15:01:01.457Z,7.2
2018-07-03T15:06:02.409Z,7.4
2018-07-03T15:16:01.513Z,7.2
2018-07-03T15:21:01.429Z,6.8
2018-07-03T15:26:01.347Z,6.7
2018-07-03T15:31:01.437Z,6.2
2018-07-03T15:36:01.376Z,6.3
2018-07-03T15:46:01.540Z,6.6
2018-07-03T15:51:01.546Z,6.8
2018-07-03T15:57:01.403Z,7.0
2018-07-03T16:02:06.401Z,7.3
2018-07-03T16:20:01.395Z,5.0
2018-07-03T16:30:01.454Z,5.9
2018-07-03T16:35:01.326Z,5.9
2018-07-03T16:40:01.459Z,5.9
2018-07-03T16:45:01.334Z,6.0
2018-07-03T16:50:01.593Z,5.6
2018-07-03T16:55:01.425Z,5.6
2018-07-03T17:00:01.529Z,5.9
2018-07-03T17:10:01.550Z,6.4
2018-07-03T17:15:01.673Z,6.6
2018-07-03T17:25:03.143Z,6.6
2018-07-03T17:30:01.567Z,6.8
2018-07-03T17:35:01.584Z,6.4
2018-07-03T17:50:01.076Z,7.0
2018-07-03T17:55:01.066Z,7.3
2018-07-03T18:00:01.208Z,7.2
2018-07-03T18:05:01.245Z,7.5
2018-07-03T18:10:01.010Z,7.3
2018-07-03T18:15:01.024Z,7.4
2018-07-03T18:20:01.154Z,7.1
2018-07-03T18:25:01.085Z,7.2
2018-07-03T18:30:01.153Z,6.9
2018-07-03T18:35:01.054Z,6.8
2018-07-03T18:40:01.180Z,6.8
2018-07-03T18:45:01.025Z,7.0
2018-07-03T18:50:01.185Z,7.1
2018-07-03T18:55:01.061Z,7.1
2018-07-03T19:00:01.032Z,7.6
2018-07-03T19:05:01.041Z,7.6
2018-07-03T19:10:01.100Z,7.6
2018-07-03T19:15:01.043Z,7.0
2018-07-03T19:20:01.045Z,6.8
2018-07-03T19:25:01.044Z,6.6
2018-07-03T19:30:06.201Z,7.0
2018-07-03T19:35:01.114Z,7.3
2018-07-03T19:40:01.250Z,8.2
2018-07-03T19:45:01.059Z,8.7
2018-07-03T19:50:02.595Z,8.7
2018-07-03T19:55:01.085Z,8.6
2018-07-03T20:00:01.215Z,8.9
2018-07-03T20:05:01.068Z,8.7
2018-07-03T20:10:01.181Z,8.8
2018-07-03T20:15:01.068Z,8.5
2018-07-03T20:20:01.201Z,8.7
2018-07-03T20:25:01.073Z,8.3
2018-07-03T20:30:01.079Z,8.2
2018-07-03T20:35:01.045Z,8.4
2018-07-03T20:40:01.199Z,8.8
2018-07-03T20:45:01.079Z,8.8
2018-07-03T20:50:01.165Z,9.2
2018-07-03T20:55:01.113Z,9.4
2018-07-03T21:00:01.348Z,9.0
2018-07-03T21:05:01.151Z,9.3
2018-07-03T21:10:01.158Z,9.3
2018-07-03T21:15:01.095Z,9.0
2018-07-03T21:20:01.154Z,9.0
2018-07-03T21:25:01.113Z,9.5
2018-07-03T21:30:01.354Z,9.5
2018-07-03T21:35:01.112Z,9.7
2018-07-03T21:40:01.242Z,9.8
2018-07-03T21:45:01.112Z,9.8
2018-07-03T21:50:01.105Z,9.8
2018-07-03T22:00:01.292Z,10.0
2018-07-03T22:05:01.117Z,10.6
2018-07-03T22:10:06.251Z,10.6
2018-07-03T22:15:01.209Z,10.4
2018-07-03T22:20:01.234Z,10.6
2018-07-03T22:25:01.152Z,10.5
2018-07-03T22:30:01.221Z,10.3
2018-07-03T22:35:01.122Z,10.4
2018-07-03T22:40:01.254Z,10.4
2018-07-03T22:45:01.128Z,10.2
2018-07-03T22:50:01.194Z,9.9
2018-07-03T22:55:01.187Z,9.8
2018-07-03T23:00:01.215Z,9.9
2018-07-03T23:05:01.146Z,10.8
2018-07-03T23:10:01.339Z,11.3
2018-07-03T23:15:01.146Z,11.6
2018-07-03T23:20:01.270Z,11.6
2018-07-03T23:25:01.170Z,11.6
2018-07-03T23:30:01.217Z,11.2
2018-07-03T23:35:01.178Z,10.6
2018-07-03T23:40:01.214Z,10.5
2018-07-03T23:45:01.178Z,10.6
